Time;durP1;ratioP1;P1;durP2;ratioP2;P2;SDS_P1;SDS_P2;PMS_P1;PMS_P2;Temp;Humidity;BMP_temperature;BMP_pressure;BME280_temperature;BME280_humidity;BME280_pressure;Samples;Min_cycle;Max_cycle;Signal;HPM_P1;HPM_P2
2022/04/14 00:04:52;;;;;;;9.40;4.15;;;;;;;12.47;91.46;100411.16;20969444;28;20048;-67
2022/04/14 00:14:54;;;;;;;9.60;4.10;;;;;;;12.43;91.80;100427.03;20963022;28;20049;-66
2022/04/14 00:24:56;;;;;;;11.98;4.00;;;;;;;12.37;92.10;100437.69;20973066;28;20067;-67
2022/04/14 00:34:58;;;;;;;9.85;4.45;;;;;;;12.35;92.70;100440.31;20983452;28;20094;-66
2022/04/14 00:45:00;;;;;;;11.13;4.45;;;;;;;12.23;93.69;100438.00;20982897;28;20157;-67
2022/04/14 00:55:02;;;;;;;11.00;4.30;;;;;;;12.04;95.63;100450.63;20983101;28;20490;-66
2022/04/14 01:05:04;;;;;;;13.82;4.35;;;;;;;11.91;95.83;100457.03;20981608;28;20105;-67
2022/04/14 01:15:13;;;;;;;10.73;4.10;;;;;;;11.76;96.82;100473.91;20980659;28;20490;-67
2022/04/14 01:25:15;;;;;;;8.52;4.10;;;;;;;11.56;98.23;100488.25;20977362;28;20048;-66
2022/04/14 01:35:17;;;;;;;9.82;4.10;;;;;;;11.51;97.32;100495.34;20979469;28;20040;-67
2022/04/14 01:45:18;;;;;;;7.88;4.03;;;;;;;11.39;99.02;100513.91;20978184;28;20048;-67
2022/04/14 01:55:20;;;;;;;11.15;5.38;;;;;;;11.38;99.00;100522.66;20978088;28;20127;-66
2022/04/14 02:05:21;;;;;;;12.00;5.10;;;;;;;11.27;99.90;100530.72;20976355;28;20459;-67
2022/04/14 02:15:23;;;;;;;9.88;4.70;;;;;;;11.23;98.97;100533.41;20976061;28;20041;-67
2022/04/14 02:25:24;;;;;;;7.10;4.55;;;;;;;11.07;100.00;100540.66;20973959;28;20448;-66
2022/04/14 02:35:26;;;;;;;8.68;4.47;;;;;;;11.22;100.00;100532.56;20973959;28;20539;-67
2022/04/14 02:45:28;;;;;;;8.93;4.30;;;;;;;11.25;99.61;100544.72;20970425;28;20076;-67
2022/04/14 02:55:29;;;;;;;10.95;4.97;;;;;;;11.26;99.38;100542.09;20972228;28;20044;-67
2022/04/14 03:05:31;;;;;;;14.25;5.70;;;;;;;11.09;100.00;100544.09;20971745;28;20411;-67
2022/04/14 03:15:32;;;;;;;11.50;4.95;;;;;;;10.99;100.00;100548.63;20971334;28;20444;-67
2022/04/14 03:25:34;;;;;;;11.07;5.03;;;;;;;10.99;100.00;100553.00;20970801;28;20052;-67
2022/04/14 03:35:35;;;;;;;9.32;5.53;;;;;;;10.96;100.00;100553.03;20970731;28;20683;-67
2022/04/14 03:45:37;;;;;;;11.18;6.28;;;;;;;10.89;100.00;100557.50;20970804;28;20048;-66
2022/04/14 03:55:39;;;;;;;10.85;6.18;;;;;;;10.83;100.00;100575.94;20969602;28;20048;-67
2022/04/14 04:05:41;;;;;;;14.10;5.95;;;;;;;10.77;100.00;100573.38;20985865;28;20040;-67
2022/04/14 04:15:42;;;;;;;15.38;6.95;;;;;;;10.73;100.00;100590.91;20982242;28;20535;-67
2022/04/14 04:25:44;;;;;;;13.20;6.43;;;;;;;10.65;100.00;100581.44;20982831;28;20060;-66
2022/04/14 04:35:45;;;;;;;13.68;6.05;;;;;;;10.36;100.00;100598.34;20983344;28;20048;-65
2022/04/14 04:45:47;;;;;;;13.50;5.88;;;;;;;10.41;100.00;100600.94;20983041;28;20064;-66
2022/04/14 04:55:48;;;;;;;11.02;6.32;;;;;;;10.53;100.00;100601.63;20983581;28;20068;-66
2022/04/14 05:05:50;;;;;;;14.10;7.22;;;;;;;10.65;100.00;100610.22;20981211;28;20048;-66
2022/04/14 05:15:51;;;;;;;11.70;6.50;;;;;;;10.82;100.00;100629.19;20974657;28;20106;-66
2022/04/14 05:25:56;;;;;;;12.05;6.15;;;;;;;11.02;100.00;100637.69;20978605;28;20052;-66
2022/04/14 05:35:57;;;;;;;13.15;6.32;;;;;;;11.26;100.00;100635.59;20975419;28;20055;-66
2022/04/14 05:45:59;;;;;;;14.43;6.88;;;;;;;11.54;100.00;100651.75;20970241;28;20490;-66
2022/04/14 05:56:01;;;;;;;13.77;7.57;;;;;;;11.95;100.00;100658.97;20963893;28;20059;-66
2022/04/14 06:06:02;;;;;;;16.58;7.78;;;;;;;12.48;99.75;100648.38;20944210;28;20048;-65
2022/04/14 06:16:04;;;;;;;22.63;9.35;;;;;;;13.03;97.74;100652.50;20943853;28;20407;-64
2022/04/14 06:26:06;;;;;;;28.63;15.80;;;;;;;13.74;96.14;100657.03;20972241;28;20097;-64
2022/04/14 06:36:07;;;;;;;27.33;16.10;;;;;;;14.33;91.64;100658.13;20973170;28;20098;-64
2022/04/14 06:46:09;;;;;;;25.23;14.75;;;;;;;14.95;89.35;100661.69;20974471;28;20067;-64
2022/04/14 06:56:12;;;;;;;31.00;16.88;;;;;;;15.27;87.74;100653.66;20959425;28;20062;-65
2022/04/14 07:06:13;;;;;;;26.90;17.40;;;;;;;15.38;86.97;100671.81;20937623;28;20621;-64
2022/04/14 07:16:15;;;;;;;34.20;19.00;;;;;;;15.28;87.33;100678.25;20927779;28;20045;-64
2022/04/14 07:26:16;;;;;;;26.60;17.63;;;;;;;15.38;87.76;100677.09;20959212;28;20052;-64
2022/04/14 07:36:21;;;;;;;28.08;18.08;;;;;;;15.73;85.58;100689.19;20963528;28;20079;-64
2022/04/14 07:46:38;;;;;;;30.23;18.63;;;;;;;16.13;82.56;100686.09;20952474;28;20049;-64
2022/04/14 07:56:40;;;;;;;25.03;17.63;;;;;;;16.43;81.58;100701.78;20964867;28;20090;-65
2022/04/14 08:06:41;;;;;;;28.33;18.20;;;;;;;16.60;80.04;100704.72;20966303;28;20048;-65
2022/04/14 08:16:49;;;;;;;25.73;17.83;;;;;;;16.48;81.70;100699.88;20962845;28;20448;-64
2022/04/14 08:26:52;;;;;;;30.27;19.08;;;;;;;16.58;81.77;100705.69;20965838;28;20110;-64
2022/04/14 08:36:54;;;;;;;29.15;19.35;;;;;;;16.70;80.95;100710.53;20965073;28;20079;-64
2022/04/14 08:46:58;;;;;;;31.42;19.75;;;;;;;16.47;82.64;100719.28;20970995;28;20045;-64
2022/04/14 08:57:02;;;;;;;32.60;19.35;;;;;;;16.45;83.25;100726.41;20977176;28;20067;-64
2022/04/14 09:07:04;;;;;;;35.53;21.98;;;;;;;16.49;83.55;100735.97;20971824;28;20467;-66
2022/04/14 09:17:07;;;;;;;31.77;21.20;;;;;;;16.55;82.51;100722.50;20977544;28;20075;-66
2022/04/14 09:27:21;;;;;;;37.10;22.80;;;;;;;16.52;82.44;100722.63;20976822;28;20048;-65
2022/04/14 09:37:24;;;;;;;31.50;20.83;;;;;;;16.50;81.75;100735.03;20976535;28;20067;-65
2022/04/14 09:47:40;;;;;;;32.58;21.73;;;;;;;16.74;81.24;100735.97;20974356;28;20569;-66
2022/04/14 09:57:41;;;;;;;36.88;22.10;;;;;;;16.58;81.43;100743.56;20974819;28;20047;-67
2022/04/14 10:07:58;;;;;;;36.08;23.27;;;;;;;16.99;80.07;100743.88;20973707;28;20409;-67
2022/04/14 10:18:08;;;;;;;33.45;21.58;;;;;;;17.50;77.28;100736.69;20969304;28;20673;-67
2022/04/14 10:28:15;;;;;;;31.67;21.83;;;;;;;17.58;74.97;100732.81;20972298;28;20048;-68
2022/04/14 10:38:30;;;;;;;31.52;20.63;;;;;;;18.34;71.98;100736.78;20970912;28;20044;-68
2022/04/14 10:48:38;;;;;;;31.05;21.52;;;;;;;18.09;70.72;100736.09;20969595;28;20626;-67
2022/04/14 10:58:39;;;;;;;31.70;20.52;;;;;;;18.48;68.43;100730.03;20970291;28;20067;-68
2022/04/14 11:08:47;;;;;;;33.50;21.35;;;;;;;18.63;68.78;100730.22;20967272;28;20086;-67
2022/04/14 11:19:24;;;;;;;33.75;20.60;;;;;;;19.40;65.48;100724.13;20967663;28;20045;-68
2022/04/14 11:29:31;;;;;;;30.08;19.30;;;;;;;19.26;64.95;100722.13;20967132;28;20048;-67
2022/04/14 11:39:33;;;;;;;28.10;20.25;;;;;;;18.92;67.03;100720.13;20968197;28;20041;-67
2022/04/14 11:49:35;;;;;;;29.83;18.20;;;;;;;19.21;65.06;100706.41;20966330;28;20048;-67
2022/04/14 11:59:42;;;;;;;26.60;18.45;;;;;;;19.49;62.07;100711.25;20968043;28;20448;-66
2022/04/14 12:09:44;;;;;;;22.02;14.50;;;;;;;19.42;61.14;100699.22;20946169;28;20059;-67
2022/04/14 12:19:51;;;;;;;21.02;13.07;;;;;;;19.38;61.38;100696.78;20970614;28;20048;-67
2022/04/14 12:30:03;;;;;;;16.25;9.50;;;;;;;19.41;60.20;100708.13;20977140;28;20044;-67
2022/04/14 12:40:10;;;;;;;15.68;8.50;;;;;;;19.42;58.85;100701.03;20980819;28;20032;-67
2022/04/14 12:50:18;;;;;;;21.45;9.35;;;;;;;19.98;57.69;100689.47;20974244;28;20047;-67
2022/04/14 13:00:21;;;;;;;16.65;8.68;;;;;;;19.96;57.38;100684.22;20974448;28;20131;-67
2022/04/14 13:10:24;;;;;;;15.32;8.52;;;;;;;20.06;56.67;100689.91;20971231;28;20045;-68
2022/04/14 13:20:37;;;;;;;17.00;10.27;;;;;;;20.12;55.95;100686.09;20978374;28;20049;-68
2022/04/14 13:30:39;;;;;;;18.90;9.25;;;;;;;20.11;57.23;100669.28;20976987;28;20190;-69
2022/04/14 13:40:40;;;;;;;18.55;10.85;;;;;;;20.11;59.01;100679.91;20977913;28;20086;-69
2022/04/14 13:50:45;;;;;;;20.20;11.60;;;;;;;19.70;59.22;100688.16;20973840;28;20045;-69
2022/04/14 14:00:47;;;;;;;;;;;;;;;19.92;60.68;100673.81;20974929;28;20040;-69
2022/04/14 14:10:48;;;;;;;19.75;11.35;;;;;;;20.17;57.30;100669.00;20971408;28;19927;-69
2022/04/14 14:20:50;;;;;;;14.35;9.48;;;;;;;20.46;56.01;100666.63;20969786;28;20170;-68
2022/04/14 14:30:52;;;;;;;15.40;9.35;;;;;;;20.25;56.84;100668.56;20955991;28;20421;-69
2022/04/14 14:40:55;;;;;;;15.23;10.32;;;;;;;20.14;57.58;100671.78;20970683;28;20056;-67
2022/04/14 14:50:57;;;;;;;14.67;8.97;;;;;;;20.36;54.77;100681.31;20968486;28;20052;-68
2022/04/14 15:00:58;;;;;;;14.02;7.78;;;;;;;19.96;55.00;100693.97;20965017;28;20056;-67
2022/04/14 15:11:01;;;;;;;12.30;6.30;;;;;;;19.85;54.88;100693.66;20967249;28;20056;-67
2022/04/14 15:21:03;;;;;;;9.23;4.25;;;;;;;19.83;54.93;100692.88;20967966;28;20782;-66
2022/04/14 15:31:04;;;;;;;12.38;4.47;;;;;;;19.56;56.09;100711.00;20967157;28;20041;-67
2022/04/14 15:41:12;;;;;;;12.13;4.28;;;;;;;19.18;57.05;100726.94;20965305;28;20040;-67
2022/04/14 15:51:14;;;;;;;8.63;3.88;;;;;;;19.09;57.32;100733.53;20966656;28;20161;-67
2022/04/14 16:01:16;;;;;;;11.15;3.97;;;;;;;19.09;57.36;100733.53;20980198;28;20098;-67
2022/04/14 16:21:39;;;;;;;8.13;3.60;;;;;;;18.99;56.34;100732.22;20978276;28;20045;-67
2022/04/14 16:31:41;;;;;;;7.22;3.83;;;;;;;18.96;59.17;100733.19;20977287;28;20378;-67
2022/04/14 16:41:43;;;;;;;8.80;4.13;;;;;;;19.07;58.63;100730.09;20977584;28;20148;-67
2022/04/14 16:51:46;;;;;;;11.75;6.05;;;;;;;18.87;59.45;100738.06;20979377;28;20101;-67
2022/04/14 17:01:47;;;;;;;10.60;6.35;;;;;;;18.92;59.47;100750.22;20976915;28;20092;-67
2022/04/14 17:11:50;;;;;;;12.10;6.93;;;;;;;18.69;61.00;100767.16;20967351;28;20076;-67
2022/04/14 17:32:13;;;;;;;12.02;5.68;;;;;;;18.34;64.09;100783.63;20952226;28;20051;-66
2022/04/14 17:42:14;;;;;;;13.20;5.20;;;;;;;18.29;65.01;100793.56;20956334;28;20102;-66
2022/04/14 17:52:16;;;;;;;15.40;5.90;;;;;;;18.01;66.13;100810.59;20954731;28;20486;-66
2022/04/14 18:02:19;;;;;;;11.18;5.55;;;;;;;17.87;67.34;100815.56;20954006;28;20051;-66
2022/04/14 18:12:26;;;;;;;8.60;5.13;;;;;;;17.60;68.78;100815.69;20957995;22;20053;-74
2022/04/14 18:22:29;;;;;;;9.70;4.85;;;;;;;17.36;69.92;100816.63;20794934;28;21113;-74
2022/04/14 18:32:30;;;;;;;9.13;4.03;;;;;;;17.08;70.92;100828.22;20797691;28;20056;-73
2022/04/14 18:42:32;;;;;;;8.68;3.80;;;;;;;16.84;72.26;100855.53;20792792;28;20446;-68
2022/04/14 18:52:33;;;;;;;9.35;3.78;;;;;;;16.54;74.40;100875.91;20803891;28;20042;-71
2022/04/14 19:02:35;;;;;;;6.35;3.85;;;;;;;16.34;76.36;100887.13;20793101;28;20049;-72
2022/04/14 19:12:37;;;;;;;8.77;4.25;;;;;;;16.02;78.53;100890.75;20791282;28;20042;-71
2022/04/14 19:22:38;;;;;;;15.30;5.13;;;;;;;15.62;81.18;100899.81;20794527;28;20525;-82
2022/04/14 19:32:40;;;;;;;7.75;3.47;;;;;;;15.48;80.90;100905.50;20791430;28;20102;-73
2022/04/14 19:42:41;;;;;;;10.15;3.97;;;;;;;15.46;80.42;100901.16;20791289;28;20042;-69
2022/04/14 19:52:43;;;;;;;7.43;3.40;;;;;;;15.27;83.15;100921.88;20790438;28;20045;-71
2022/04/14 20:02:44;;;;;;;6.78;3.30;;;;;;;15.12;82.34;100929.28;20786083;28;20499;-74
2022/04/14 20:12:46;;;;;;;6.93;3.30;;;;;;;14.98;83.45;100926.16;20787718;28;20422;-74
2022/04/14 20:22:48;;;;;;;9.15;3.80;;;;;;;14.78;84.88;100931.06;20786294;28;20057;-67
2022/04/14 20:32:49;;;;;;;9.63;3.67;;;;;;;14.47;87.18;100931.78;20785881;28;20062;-69
2022/04/14 20:42:51;;;;;;;7.53;4.13;;;;;;;14.19;88.36;100943.84;20803390;28;20060;-68
2022/04/14 20:52:52;;;;;;;8.93;4.85;;;;;;;14.07;88.78;100950.22;20834855;28;20048;-68
2022/04/14 21:02:54;;;;;;;9.93;4.25;;;;;;;13.99;88.81;100949.50;20861023;28;20041;-69
2022/04/14 21:12:55;;;;;;;7.20;3.33;;;;;;;13.79;90.33;100944.66;20851743;28;20095;-70
2022/04/14 21:23:00;;;;;;;8.38;3.75;;;;;;;13.57;91.21;100947.72;20852229;28;20202;-68
2022/04/14 21:33:02;;;;;;;6.97;3.58;;;;;;;13.49;92.28;100951.38;20854251;28;20090;-68
2022/04/14 21:43:04;;;;;;;9.55;4.03;;;;;;;13.23;93.25;100951.88;20847424;28;20447;-69
2022/04/14 21:53:06;;;;;;;6.68;3.35;;;;;;;13.01;94.25;100953.97;20853914;28;20136;-68
2022/04/14 22:03:08;;;;;;;9.85;4.07;;;;;;;12.80;94.97;100950.81;20848674;28;20053;-69
2022/04/14 22:13:10;;;;;;;7.07;3.67;;;;;;;12.74;93.69;100963.16;20850415;28;20038;-69
2022/04/14 22:23:13;;;;;;;10.57;6.00;;;;;;;12.49;96.54;100960.91;20857313;28;20076;-69
2022/04/14 22:33:14;;;;;;;9.60;5.45;;;;;;;12.43;96.95;100979.38;20847326;28;20201;-69
2022/04/14 22:43:19;;;;;;;9.90;5.60;;;;;;;12.38;97.54;100978.56;20855283;28;20099;-69
2022/04/14 22:53:20;;;;;;;8.93;5.10;;;;;;;12.34;98.13;100987.38;20853062;28;20095;-68
2022/04/14 23:03:22;;;;;;;8.45;4.80;;;;;;;12.30;97.79;100985.69;20845422;28;20132;-69
2022/04/14 23:13:23;;;;;;;11.73;5.80;;;;;;;12.23;98.19;100984.91;20852114;28;20041;-69
2022/04/14 23:23:26;;;;;;;7.55;4.80;;;;;;;12.22;97.52;100998.94;20847242;28;20114;-69
2022/04/14 23:33:28;;;;;;;12.32;6.30;;;;;;;12.12;97.70;101006.91;20848423;28;20111;-71
2022/04/14 23:43:30;;;;;;;18.10;5.30;;;;;;;11.88;99.06;101008.97;20851253;28;20110;-69
2022/04/14 23:53:32;;;;;;;12.00;6.03;;;;;;;11.68;100.00;101024.00;20841834;28;20045;-69
